sensor_id;sensor_type;location;lat;lon;timestamp;P1;durP1;ratioP1;P2;durP2;ratioP2
15706;SDS011;7953;54.302;10.128;2023-06-22T00:00:47;3.80;;;3.50;;
15706;SDS011;7953;54.302;10.128;2023-06-22T00:03:14;3.80;;;3.03;;
15706;SDS011;7953;54.302;10.128;2023-06-22T00:05:41;4.50;;;3.37;;
15706;SDS011;7953;54.302;10.128;2023-06-22T00:08:08;5.03;;;3.67;;
15706;SDS011;7953;54.302;10.128;2023-06-22T00:10:36;3.33;;;2.73;;
15706;SDS011;7953;54.302;10.128;2023-06-22T00:13:03;4.67;;;2.93;;
15706;SDS011;7953;54.302;10.128;2023-06-22T00:15:30;5.03;;;3.20;;
15706;SDS011;7953;54.302;10.128;2023-06-22T00:17:57;3.87;;;3.13;;
15706;SDS011;7953;54.302;10.128;2023-06-22T00:20:24;6.03;;;3.13;;
15706;SDS011;7953;54.302;10.128;2023-06-22T00:22:53;3.70;;;3.40;;
15706;SDS011;7953;54.302;10.128;2023-06-22T00:25:20;4.27;;;3.83;;
15706;SDS011;7953;54.302;10.128;2023-06-22T00:27:48;4.33;;;3.20;;
15706;SDS011;7953;54.302;10.128;2023-06-22T00:30:15;5.23;;;3.53;;
15706;SDS011;7953;54.302;10.128;2023-06-22T00:32:42;5.23;;;3.80;;
15706;SDS011;7953;54.302;10.128;2023-06-22T00:35:11;4.20;;;3.77;;
15706;SDS011;7953;54.302;10.128;2023-06-22T00:37:38;4.70;;;3.70;;
15706;SDS011;7953;54.302;10.128;2023-06-22T00:40:07;3.17;;;2.87;;
15706;SDS011;7953;54.302;10.128;2023-06-22T00:42:36;3.63;;;3.30;;
15706;SDS011;7953;54.302;10.128;2023-06-22T00:45:06;4.77;;;3.50;;
15706;SDS011;7953;54.302;10.128;2023-06-22T00:47:34;4.90;;;3.83;;
15706;SDS011;7953;54.302;10.128;2023-06-22T00:50:01;4.13;;;3.73;;
15706;SDS011;7953;54.302;10.128;2023-06-22T00:52:33;5.37;;;4.30;;
15706;SDS011;7953;54.302;10.128;2023-06-22T00:55:01;5.70;;;4.37;;
15706;SDS011;7953;54.302;10.128;2023-06-22T00:57:28;4.40;;;3.80;;
15706;SDS011;7953;54.302;10.128;2023-06-22T00:59:56;5.40;;;4.10;;
15706;SDS011;7953;54.302;10.128;2023-06-22T01:02:24;4.93;;;3.70;;
15706;SDS011;7953;54.302;10.128;2023-06-22T01:04:51;4.77;;;3.73;;
15706;SDS011;7953;54.302;10.128;2023-06-22T01:07:21;4.23;;;3.10;;
15706;SDS011;7953;54.302;10.128;2023-06-22T01:09:54;4.13;;;3.53;;
15706;SDS011;7953;54.302;10.128;2023-06-22T01:12:29;3.87;;;3.47;;
15706;SDS011;7953;54.302;10.128;2023-06-22T01:15:02;5.60;;;3.87;;
15706;SDS011;7953;54.302;10.128;2023-06-22T01:17:35;4.97;;;3.70;;
15706;SDS011;7953;54.302;10.128;2023-06-22T01:20:06;3.90;;;3.60;;
15706;SDS011;7953;54.302;10.128;2023-06-22T01:22:48;4.33;;;3.93;;
15706;SDS011;7953;54.302;10.128;2023-06-22T01:25:34;5.93;;;4.10;;
15706;SDS011;7953;54.302;10.128;2023-06-22T01:28:15;5.43;;;3.27;;
15706;SDS011;7953;54.302;10.128;2023-06-22T01:30:50;3.37;;;2.97;;
15706;SDS011;7953;54.302;10.128;2023-06-22T01:33:28;4.93;;;3.00;;
15706;SDS011;7953;54.302;10.128;2023-06-22T01:35:56;3.83;;;3.27;;
15706;SDS011;7953;54.302;10.128;2023-06-22T01:38:23;4.30;;;3.90;;
15706;SDS011;7953;54.302;10.128;2023-06-22T01:40:51;4.30;;;3.90;;
15706;SDS011;7953;54.302;10.128;2023-06-22T01:43:19;3.97;;;3.57;;
15706;SDS011;7953;54.302;10.128;2023-06-22T01:45:49;4.23;;;3.83;;
15706;SDS011;7953;54.302;10.128;2023-06-22T01:48:17;4.73;;;3.87;;
15706;SDS011;7953;54.302;10.128;2023-06-22T01:50:45;4.30;;;3.83;;
15706;SDS011;7953;54.302;10.128;2023-06-22T01:53:13;7.43;;;4.90;;
15706;SDS011;7953;54.302;10.128;2023-06-22T01:55:39;6.73;;;4.40;;
15706;SDS011;7953;54.302;10.128;2023-06-22T01:58:06;6.23;;;5.20;;
15706;SDS011;7953;54.302;10.128;2023-06-22T02:00:35;7.67;;;5.20;;
15706;SDS011;7953;54.302;10.128;2023-06-22T02:03:08;6.83;;;5.73;;
15706;SDS011;7953;54.302;10.128;2023-06-22T02:05:43;7.50;;;6.70;;
15706;SDS011;7953;54.302;10.128;2023-06-22T02:08:15;6.63;;;5.80;;
15706;SDS011;7953;54.302;10.128;2023-06-22T02:10:46;8.00;;;5.93;;
15706;SDS011;7953;54.302;10.128;2023-06-22T02:13:14;6.93;;;5.60;;
15706;SDS011;7953;54.302;10.128;2023-06-22T02:15:43;5.57;;;5.03;;
15706;SDS011;7953;54.302;10.128;2023-06-22T02:18:12;7.37;;;5.67;;
15706;SDS011;7953;54.302;10.128;2023-06-22T02:20:40;6.70;;;5.23;;
15706;SDS011;7953;54.302;10.128;2023-06-22T02:23:07;5.57;;;5.07;;
15706;SDS011;7953;54.302;10.128;2023-06-22T02:25:34;6.00;;;5.20;;
15706;SDS011;7953;54.302;10.128;2023-06-22T02:28:01;6.37;;;5.63;;
15706;SDS011;7953;54.302;10.128;2023-06-22T02:30:28;5.83;;;5.17;;
15706;SDS011;7953;54.302;10.128;2023-06-22T02:32:55;7.73;;;5.57;;
15706;SDS011;7953;54.302;10.128;2023-06-22T02:35:26;6.90;;;6.20;;
15706;SDS011;7953;54.302;10.128;2023-06-22T02:37:56;6.53;;;5.60;;
15706;SDS011;7953;54.302;10.128;2023-06-22T02:40:24;5.87;;;5.27;;
15706;SDS011;7953;54.302;10.128;2023-06-22T02:42:51;8.00;;;5.83;;
15706;SDS011;7953;54.302;10.128;2023-06-22T02:45:18;6.83;;;5.40;;
15706;SDS011;7953;54.302;10.128;2023-06-22T02:47:45;7.07;;;5.70;;
15706;SDS011;7953;54.302;10.128;2023-06-22T02:50:13;5.63;;;4.87;;
15706;SDS011;7953;54.302;10.128;2023-06-22T02:52:41;5.63;;;4.90;;
15706;SDS011;7953;54.302;10.128;2023-06-22T02:55:08;7.03;;;5.23;;
15706;SDS011;7953;54.302;10.128;2023-06-22T02:57:35;8.77;;;5.30;;
15706;SDS011;7953;54.302;10.128;2023-06-22T03:00:02;6.50;;;4.70;;
15706;SDS011;7953;54.302;10.128;2023-06-22T03:02:41;5.30;;;4.30;;
15706;SDS011;7953;54.302;10.128;2023-06-22T03:05:09;7.63;;;5.50;;
15706;SDS011;7953;54.302;10.128;2023-06-22T03:07:38;6.57;;;5.33;;
15706;SDS011;7953;54.302;10.128;2023-06-22T03:10:07;7.30;;;6.53;;
15706;SDS011;7953;54.302;10.128;2023-06-22T03:12:35;7.67;;;5.63;;
15706;SDS011;7953;54.302;10.128;2023-06-22T03:15:03;6.57;;;5.97;;
15706;SDS011;7953;54.302;10.128;2023-06-22T03:17:31;7.97;;;6.70;;
15706;SDS011;7953;54.302;10.128;2023-06-22T03:19:59;7.17;;;5.67;;
15706;SDS011;7953;54.302;10.128;2023-06-22T03:22:26;7.50;;;6.27;;
15706;SDS011;7953;54.302;10.128;2023-06-22T03:24:54;8.17;;;6.10;;
15706;SDS011;7953;54.302;10.128;2023-06-22T03:27:21;8.47;;;6.20;;
15706;SDS011;7953;54.302;10.128;2023-06-22T03:29:47;7.10;;;6.40;;
15706;SDS011;7953;54.302;10.128;2023-06-22T03:32:14;7.27;;;6.47;;
15706;SDS011;7953;54.302;10.128;2023-06-22T03:34:41;7.87;;;7.07;;
15706;SDS011;7953;54.302;10.128;2023-06-22T03:37:12;8.73;;;7.33;;
15706;SDS011;7953;54.302;10.128;2023-06-22T03:39:39;7.60;;;6.83;;
15706;SDS011;7953;54.302;10.128;2023-06-22T03:42:07;8.20;;;7.33;;
15706;SDS011;7953;54.302;10.128;2023-06-22T03:44:34;7.47;;;6.60;;
15706;SDS011;7953;54.302;10.128;2023-06-22T03:47:01;9.20;;;7.37;;
15706;SDS011;7953;54.302;10.128;2023-06-22T03:49:28;10.30;;;8.03;;
15706;SDS011;7953;54.302;10.128;2023-06-22T03:51:55;10.77;;;8.30;;
15706;SDS011;7953;54.302;10.128;2023-06-22T03:54:22;9.13;;;6.70;;
15706;SDS011;7953;54.302;10.128;2023-06-22T03:56:49;9.67;;;8.23;;
15706;SDS011;7953;54.302;10.128;2023-06-22T03:59:17;7.67;;;6.93;;
15706;SDS011;7953;54.302;10.128;2023-06-22T04:01:44;7.43;;;6.57;;
15706;SDS011;7953;54.302;10.128;2023-06-22T04:04:11;6.00;;;5.50;;
15706;SDS011;7953;54.302;10.128;2023-06-22T04:06:38;6.47;;;5.77;;
15706;SDS011;7953;54.302;10.128;2023-06-22T04:09:05;7.30;;;5.80;;
15706;SDS011;7953;54.302;10.128;2023-06-22T04:11:32;5.77;;;4.97;;
15706;SDS011;7953;54.302;10.128;2023-06-22T04:13:59;6.53;;;5.50;;
15706;SDS011;7953;54.302;10.128;2023-06-22T04:16:27;6.70;;;5.67;;
15706;SDS011;7953;54.302;10.128;2023-06-22T04:18:54;7.97;;;6.30;;
15706;SDS011;7953;54.302;10.128;2023-06-22T04:21:21;6.53;;;5.60;;
15706;SDS011;7953;54.302;10.128;2023-06-22T04:23:48;6.27;;;5.67;;
15706;SDS011;7953;54.302;10.128;2023-06-22T04:26:15;5.50;;;5.00;;
15706;SDS011;7953;54.302;10.128;2023-06-22T04:28:42;6.90;;;6.10;;
15706;SDS011;7953;54.302;10.128;2023-06-22T04:31:16;9.80;;;5.70;;
15706;SDS011;7953;54.302;10.128;2023-06-22T04:33:44;6.07;;;5.47;;
15706;SDS011;7953;54.302;10.128;2023-06-22T04:36:11;7.33;;;5.63;;
15706;SDS011;7953;54.302;10.128;2023-06-22T04:38:39;6.20;;;5.63;;
15706;SDS011;7953;54.302;10.128;2023-06-22T04:41:07;7.63;;;6.33;;
15706;SDS011;7953;54.302;10.128;2023-06-22T04:43:48;8.60;;;7.40;;
15706;SDS011;7953;54.302;10.128;2023-06-22T04:46:18;9.33;;;7.00;;
15706;SDS011;7953;54.302;10.128;2023-06-22T04:48:47;7.87;;;6.90;;
15706;SDS011;7953;54.302;10.128;2023-06-22T04:51:13;11.03;;;8.10;;
15706;SDS011;7953;54.302;10.128;2023-06-22T04:53:40;8.50;;;6.77;;
15706;SDS011;7953;54.302;10.128;2023-06-22T04:56:08;6.40;;;5.80;;
15706;SDS011;7953;54.302;10.128;2023-06-22T04:58:34;10.77;;;7.60;;
15706;SDS011;7953;54.302;10.128;2023-06-22T05:01:01;21.80;;;8.90;;
15706;SDS011;7953;54.302;10.128;2023-06-22T05:03:29;17.97;;;8.63;;
15706;SDS011;7953;54.302;10.128;2023-06-22T05:05:57;10.37;;;7.87;;
15706;SDS011;7953;54.302;10.128;2023-06-22T05:08:24;10.23;;;7.07;;
15706;SDS011;7953;54.302;10.128;2023-06-22T05:10:53;8.03;;;7.03;;
15706;SDS011;7953;54.302;10.128;2023-06-22T05:13:20;9.83;;;7.10;;
15706;SDS011;7953;54.302;10.128;2023-06-22T05:15:51;8.93;;;6.13;;
15706;SDS011;7953;54.302;10.128;2023-06-22T05:18:22;9.30;;;6.37;;
15706;SDS011;7953;54.302;10.128;2023-06-22T05:20:49;11.03;;;6.87;;
15706;SDS011;7953;54.302;10.128;2023-06-22T05:23:18;9.97;;;6.23;;
15706;SDS011;7953;54.302;10.128;2023-06-22T05:25:45;8.00;;;5.17;;
15706;SDS011;7953;54.302;10.128;2023-06-22T05:31:22;6.97;;;6.03;;
15706;SDS011;7953;54.302;10.128;2023-06-22T05:33:51;9.53;;;5.70;;
15706;SDS011;7953;54.302;10.128;2023-06-22T05:36:19;8.17;;;6.13;;
15706;SDS011;7953;54.302;10.128;2023-06-22T05:38:47;7.87;;;6.03;;
15706;SDS011;7953;54.302;10.128;2023-06-22T05:41:14;6.10;;;5.30;;
15706;SDS011;7953;54.302;10.128;2023-06-22T05:43:41;8.27;;;5.00;;
15706;SDS011;7953;54.302;10.128;2023-06-22T05:46:08;6.70;;;4.67;;
15706;SDS011;7953;54.302;10.128;2023-06-22T05:48:35;9.77;;;5.10;;
15706;SDS011;7953;54.302;10.128;2023-06-22T05:51:02;12.17;;;5.73;;
15706;SDS011;7953;54.302;10.128;2023-06-22T05:53:29;7.63;;;4.83;;
15706;SDS011;7953;54.302;10.128;2023-06-22T05:55:57;8.43;;;4.60;;
15706;SDS011;7953;54.302;10.128;2023-06-22T05:58:24;6.57;;;4.17;;
15706;SDS011;7953;54.302;10.128;2023-06-22T06:00:50;28.57;;;6.40;;
15706;SDS011;7953;54.302;10.128;2023-06-22T06:03:17;7.23;;;3.70;;
15706;SDS011;7953;54.302;10.128;2023-06-22T06:05:44;10.60;;;4.37;;
15706;SDS011;7953;54.302;10.128;2023-06-22T06:08:11;4.13;;;3.73;;
15706;SDS011;7953;54.302;10.128;2023-06-22T06:10:38;10.80;;;4.50;;
15706;SDS011;7953;54.302;10.128;2023-06-22T06:13:07;5.53;;;4.13;;
15706;SDS011;7953;54.302;10.128;2023-06-22T06:15:34;5.77;;;3.27;;
15706;SDS011;7953;54.302;10.128;2023-06-22T06:18:01;12.57;;;3.53;;
15706;SDS011;7953;54.302;10.128;2023-06-22T06:20:30;17.60;;;4.13;;
15706;SDS011;7953;54.302;10.128;2023-06-22T06:22:57;5.90;;;3.20;;
15706;SDS011;7953;54.302;10.128;2023-06-22T06:25:24;7.80;;;2.87;;
15706;SDS011;7953;54.302;10.128;2023-06-22T06:27:51;4.03;;;2.60;;
15706;SDS011;7953;54.302;10.128;2023-06-22T06:30:20;4.23;;;3.10;;
15706;SDS011;7953;54.302;10.128;2023-06-22T06:32:48;9.60;;;2.87;;
15706;SDS011;7953;54.302;10.128;2023-06-22T06:35:15;6.80;;;2.53;;
15706;SDS011;7953;54.302;10.128;2023-06-22T06:37:43;3.27;;;2.70;;
15706;SDS011;7953;54.302;10.128;2023-06-22T06:40:11;3.57;;;2.80;;
15706;SDS011;7953;54.302;10.128;2023-06-22T06:42:39;4.60;;;2.83;;
15706;SDS011;7953;54.302;10.128;2023-06-22T06:45:09;21.60;;;4.77;;
15706;SDS011;7953;54.302;10.128;2023-06-22T06:47:38;3.73;;;3.00;;
15706;SDS011;7953;54.302;10.128;2023-06-22T06:50:06;3.63;;;2.80;;
15706;SDS011;7953;54.302;10.128;2023-06-22T06:52:33;4.63;;;2.63;;
15706;SDS011;7953;54.302;10.128;2023-06-22T06:55:00;4.77;;;3.00;;
15706;SDS011;7953;54.302;10.128;2023-06-22T06:57:29;10.10;;;3.93;;
15706;SDS011;7953;54.302;10.128;2023-06-22T06:59:56;6.20;;;3.37;;
15706;SDS011;7953;54.302;10.128;2023-06-22T07:02:23;3.60;;;3.30;;
15706;SDS011;7953;54.302;10.128;2023-06-22T07:04:54;4.97;;;3.43;;
15706;SDS011;7953;54.302;10.128;2023-06-22T07:07:21;3.30;;;3.00;;
15706;SDS011;7953;54.302;10.128;2023-06-22T07:09:48;4.30;;;3.03;;
15706;SDS011;7953;54.302;10.128;2023-06-22T07:12:15;3.70;;;2.77;;
15706;SDS011;7953;54.302;10.128;2023-06-22T07:14:42;3.43;;;2.47;;
15706;SDS011;7953;54.302;10.128;2023-06-22T07:17:09;4.30;;;2.90;;
15706;SDS011;7953;54.302;10.128;2023-06-22T07:19:35;3.40;;;2.80;;
15706;SDS011;7953;54.302;10.128;2023-06-22T07:22:04;3.77;;;2.63;;
15706;SDS011;7953;54.302;10.128;2023-06-22T07:24:31;4.13;;;3.27;;
15706;SDS011;7953;54.302;10.128;2023-06-22T07:26:58;3.00;;;2.63;;
15706;SDS011;7953;54.302;10.128;2023-06-22T07:29:25;4.17;;;3.30;;
15706;SDS011;7953;54.302;10.128;2023-06-22T07:31:52;9.83;;;3.37;;
15706;SDS011;7953;54.302;10.128;2023-06-22T07:34:21;3.87;;;3.20;;
15706;SDS011;7953;54.302;10.128;2023-06-22T07:36:48;3.00;;;2.47;;
15706;SDS011;7953;54.302;10.128;2023-06-22T07:39:16;6.77;;;3.70;;
15706;SDS011;7953;54.302;10.128;2023-06-22T07:41:43;5.07;;;3.10;;
15706;SDS011;7953;54.302;10.128;2023-06-22T07:44:10;5.80;;;2.50;;
15706;SDS011;7953;54.302;10.128;2023-06-22T07:46:37;4.07;;;2.80;;
15706;SDS011;7953;54.302;10.128;2023-06-22T07:49:04;4.37;;;2.67;;
15706;SDS011;7953;54.302;10.128;2023-06-22T07:51:33;2.73;;;2.53;;
15706;SDS011;7953;54.302;10.128;2023-06-22T07:53:59;4.03;;;3.20;;
15706;SDS011;7953;54.302;10.128;2023-06-22T07:56:28;2.90;;;2.50;;
15706;SDS011;7953;54.302;10.128;2023-06-22T07:58:55;3.00;;;2.70;;
15706;SDS011;7953;54.302;10.128;2023-06-22T08:01:23;5.90;;;2.90;;
15706;SDS011;7953;54.302;10.128;2023-06-22T08:03:50;3.50;;;2.47;;
15706;SDS011;7953;54.302;10.128;2023-06-22T08:06:17;3.87;;;2.60;;
15706;SDS011;7953;54.302;10.128;2023-06-22T08:08:44;5.03;;;2.80;;
15706;SDS011;7953;54.302;10.128;2023-06-22T08:11:13;3.20;;;2.20;;
15706;SDS011;7953;54.302;10.128;2023-06-22T08:13:41;3.53;;;2.53;;
15706;SDS011;7953;54.302;10.128;2023-06-22T08:16:08;3.20;;;2.40;;
15706;SDS011;7953;54.302;10.128;2023-06-22T08:18:35;2.77;;;2.47;;
15706;SDS011;7953;54.302;10.128;2023-06-22T08:21:03;5.87;;;3.13;;
15706;SDS011;7953;54.302;10.128;2023-06-22T08:23:30;3.27;;;2.50;;
15706;SDS011;7953;54.302;10.128;2023-06-22T08:25:57;3.70;;;2.43;;
15706;SDS011;7953;54.302;10.128;2023-06-22T08:28:23;3.38;;;2.50;;
15706;SDS011;7953;54.302;10.128;2023-06-22T08:30:52;3.30;;;2.78;;
15706;SDS011;7953;54.302;10.128;2023-06-22T08:33:20;3.40;;;2.40;;
15706;SDS011;7953;54.302;10.128;2023-06-22T08:35:48;5.22;;;2.47;;
15706;SDS011;7953;54.302;10.128;2023-06-22T08:38:15;4.57;;;2.50;;
15706;SDS011;7953;54.302;10.128;2023-06-22T08:40:43;4.65;;;2.75;;
15706;SDS011;7953;54.302;10.128;2023-06-22T08:43:10;3.53;;;2.63;;
15706;SDS011;7953;54.302;10.128;2023-06-22T08:45:37;4.65;;;3.00;;
15706;SDS011;7953;54.302;10.128;2023-06-22T08:48:06;5.20;;;2.25;;
15706;SDS011;7953;54.302;10.128;2023-06-22T08:50:33;7.63;;;3.03;;
15706;SDS011;7953;54.302;10.128;2023-06-22T08:53:00;6.80;;;3.03;;
15706;SDS011;7953;54.302;10.128;2023-06-22T08:55:27;3.58;;;2.25;;
15706;SDS011;7953;54.302;10.128;2023-06-22T08:57:54;3.10;;;2.40;;
15706;SDS011;7953;54.302;10.128;2023-06-22T09:00:21;4.57;;;2.38;;
15706;SDS011;7953;54.302;10.128;2023-06-22T09:02:48;6.53;;;2.47;;
15706;SDS011;7953;54.302;10.128;2023-06-22T09:05:17;4.53;;;2.80;;
15706;SDS011;7953;54.302;10.128;2023-06-22T09:07:44;4.32;;;2.72;;
15706;SDS011;7953;54.302;10.128;2023-06-22T09:10:11;2.70;;;2.50;;
15706;SDS011;7953;54.302;10.128;2023-06-22T09:12:38;3.28;;;2.25;;
15706;SDS011;7953;54.302;10.128;2023-06-22T09:15:06;3.63;;;2.63;;
15706;SDS011;7953;54.302;10.128;2023-06-22T09:17:34;4.95;;;3.03;;
15706;SDS011;7953;54.302;10.128;2023-06-22T09:20:02;3.75;;;2.80;;
15706;SDS011;7953;54.302;10.128;2023-06-22T09:22:32;4.95;;;2.50;;
15706;SDS011;7953;54.302;10.128;2023-06-22T09:24:59;4.55;;;2.58;;
15706;SDS011;7953;54.302;10.128;2023-06-22T09:27:26;3.30;;;2.53;;
15706;SDS011;7953;54.302;10.128;2023-06-22T09:29:53;3.88;;;2.60;;
15706;SDS011;7953;54.302;10.128;2023-06-22T09:32:20;4.70;;;2.60;;
15706;SDS011;7953;54.302;10.128;2023-06-22T09:34:47;2.20;;;2.03;;
15706;SDS011;7953;54.302;10.128;2023-06-22T09:37:14;2.92;;;2.22;;
15706;SDS011;7953;54.302;10.128;2023-06-22T09:39:42;2.75;;;2.28;;
15706;SDS011;7953;54.302;10.128;2023-06-22T09:42:09;3.80;;;2.38;;
15706;SDS011;7953;54.302;10.128;2023-06-22T09:44:36;3.30;;;1.90;;
15706;SDS011;7953;54.302;10.128;2023-06-22T09:47:03;2.85;;;2.35;;
15706;SDS011;7953;54.302;10.128;2023-06-22T09:49:31;4.00;;;2.40;;
15706;SDS011;7953;54.302;10.128;2023-06-22T09:51:58;2.97;;;2.40;;
15706;SDS011;7953;54.302;10.128;2023-06-22T09:54:25;3.40;;;2.28;;
15706;SDS011;7953;54.302;10.128;2023-06-22T09:56:53;3.83;;;2.40;;
15706;SDS011;7953;54.302;10.128;2023-06-22T09:59:20;1.95;;;1.73;;
15706;SDS011;7953;54.302;10.128;2023-06-22T10:01:47;3.42;;;2.28;;
15706;SDS011;7953;54.302;10.128;2023-06-22T10:04:14;6.93;;;2.45;;
15706;SDS011;7953;54.302;10.128;2023-06-22T10:06:41;3.42;;;2.30;;
15706;SDS011;7953;54.302;10.128;2023-06-22T10:09:08;6.18;;;2.20;;
15706;SDS011;7953;54.302;10.128;2023-06-22T10:11:34;2.30;;;2.10;;
15706;SDS011;7953;54.302;10.128;2023-06-22T10:14:03;3.55;;;2.50;;
15706;SDS011;7953;54.302;10.128;2023-06-22T10:16:30;3.25;;;2.17;;
15706;SDS011;7953;54.302;10.128;2023-06-22T10:18:57;2.50;;;2.30;;
15706;SDS011;7953;54.302;10.128;2023-06-22T10:21:24;2.72;;;2.40;;
15706;SDS011;7953;54.302;10.128;2023-06-22T10:23:52;2.35;;;2.13;;
15706;SDS011;7953;54.302;10.128;2023-06-22T10:26:19;2.22;;;1.88;;
15706;SDS011;7953;54.302;10.128;2023-06-22T10:28:45;5.82;;;2.28;;
15706;SDS011;7953;54.302;10.128;2023-06-22T10:31:14;5.97;;;2.60;;
15706;SDS011;7953;54.302;10.128;2023-06-22T10:33:41;2.42;;;2.10;;
15706;SDS011;7953;54.302;10.128;2023-06-22T10:36:09;2.85;;;2.08;;
15706;SDS011;7953;54.302;10.128;2023-06-22T10:38:36;2.30;;;1.80;;
15706;SDS011;7953;54.302;10.128;2023-06-22T10:41:03;3.55;;;2.20;;
15706;SDS011;7953;54.302;10.128;2023-06-22T10:43:29;8.18;;;2.95;;
15706;SDS011;7953;54.302;10.128;2023-06-22T10:45:56;6.28;;;2.70;;
15706;SDS011;7953;54.302;10.128;2023-06-22T10:48:25;2.35;;;1.80;;
15706;SDS011;7953;54.302;10.128;2023-06-22T10:50:51;5.05;;;2.22;;
15706;SDS011;7953;54.302;10.128;2023-06-22T10:53:19;2.97;;;2.47;;
15706;SDS011;7953;54.302;10.128;2023-06-22T10:55:46;3.28;;;1.90;;
15706;SDS011;7953;54.302;10.128;2023-06-22T10:58:13;2.53;;;2.20;;
15706;SDS011;7953;54.302;10.128;2023-06-22T11:00:40;4.00;;;2.33;;
15706;SDS011;7953;54.302;10.128;2023-06-22T11:03:07;3.42;;;2.17;;
15706;SDS011;7953;54.302;10.128;2023-06-22T11:05:35;2.70;;;2.10;;
15706;SDS011;7953;54.302;10.128;2023-06-22T11:08:02;4.50;;;2.17;;
15706;SDS011;7953;54.302;10.128;2023-06-22T11:10:29;5.53;;;2.90;;
15706;SDS011;7953;54.302;10.128;2023-06-22T11:12:56;3.72;;;2.05;;
15706;SDS011;7953;54.302;10.128;2023-06-22T11:15:23;2.83;;;2.35;;
15706;SDS011;7953;54.302;10.128;2023-06-22T11:17:50;21.77;;;3.83;;
15706;SDS011;7953;54.302;10.128;2023-06-22T11:20:17;3.65;;;2.25;;
15706;SDS011;7953;54.302;10.128;2023-06-22T11:22:46;2.28;;;1.77;;
15706;SDS011;7953;54.302;10.128;2023-06-22T11:25:13;2.50;;;2.20;;
15706;SDS011;7953;54.302;10.128;2023-06-22T11:27:39;3.55;;;2.22;;
15706;SDS011;7953;54.302;10.128;2023-06-22T11:30:07;3.30;;;2.08;;
15706;SDS011;7953;54.302;10.128;2023-06-22T11:32:35;6.07;;;2.60;;
15706;SDS011;7953;54.302;10.128;2023-06-22T11:35:01;7.28;;;2.30;;
15706;SDS011;7953;54.302;10.128;2023-06-22T11:37:29;4.95;;;2.65;;
15706;SDS011;7953;54.302;10.128;2023-06-22T11:39:57;6.38;;;2.20;;
15706;SDS011;7953;54.302;10.128;2023-06-22T11:42:24;3.35;;;2.00;;
15706;SDS011;7953;54.302;10.128;2023-06-22T11:44:51;2.92;;;2.67;;
15706;SDS011;7953;54.302;10.128;2023-06-22T11:47:18;2.78;;;2.20;;
15706;SDS011;7953;54.302;10.128;2023-06-22T11:49:44;2.33;;;2.13;;
15706;SDS011;7953;54.302;10.128;2023-06-22T11:52:11;3.67;;;2.22;;
15706;SDS011;7953;54.302;10.128;2023-06-22T11:54:38;2.85;;;2.05;;
15706;SDS011;7953;54.302;10.128;2023-06-22T11:57:06;2.35;;;1.70;;
15706;SDS011;7953;54.302;10.128;2023-06-22T11:59:33;2.47;;;2.00;;
15706;SDS011;7953;54.302;10.128;2023-06-22T12:02:00;2.85;;;1.63;;
15706;SDS011;7953;54.302;10.128;2023-06-22T12:04:28;2.53;;;2.05;;
15706;SDS011;7953;54.302;10.128;2023-06-22T12:06:55;3.17;;;2.15;;
15706;SDS011;7953;54.302;10.128;2023-06-22T12:09:23;2.20;;;2.00;;
15706;SDS011;7953;54.302;10.128;2023-06-22T12:11:50;2.40;;;1.70;;
15706;SDS011;7953;54.302;10.128;2023-06-22T12:14:18;2.17;;;1.98;;
15706;SDS011;7953;54.302;10.128;2023-06-22T12:16:45;3.03;;;2.13;;
15706;SDS011;7953;54.302;10.128;2023-06-22T12:19:12;3.08;;;2.10;;
15706;SDS011;7953;54.302;10.128;2023-06-22T12:21:39;2.17;;;1.90;;
15706;SDS011;7953;54.302;10.128;2023-06-22T12:24:06;2.75;;;2.25;;
15706;SDS011;7953;54.302;10.128;2023-06-22T12:26:33;3.05;;;1.65;;
15706;SDS011;7953;54.302;10.128;2023-06-22T12:29:00;2.22;;;1.88;;
15706;SDS011;7953;54.302;10.128;2023-06-22T12:31:28;2.10;;;2.00;;
15706;SDS011;7953;54.302;10.128;2023-06-22T12:33:55;2.22;;;1.80;;
15706;SDS011;7953;54.302;10.128;2023-06-22T12:36:22;1.90;;;1.63;;
15706;SDS011;7953;54.302;10.128;2023-06-22T12:38:49;2.00;;;1.50;;
15706;SDS011;7953;54.302;10.128;2023-06-22T12:41:16;2.10;;;1.90;;
15706;SDS011;7953;54.302;10.128;2023-06-22T12:43:43;3.03;;;1.92;;
15706;SDS011;7953;54.302;10.128;2023-06-22T12:46:10;1.88;;;1.77;;
15706;SDS011;7953;54.302;10.128;2023-06-22T12:48:38;5.25;;;1.73;;
15706;SDS011;7953;54.302;10.128;2023-06-22T12:51:07;1.85;;;1.73;;
15706;SDS011;7953;54.302;10.128;2023-06-22T12:53:34;2.22;;;1.50;;
15706;SDS011;7953;54.302;10.128;2023-06-22T12:56:01;2.03;;;1.73;;
15706;SDS011;7953;54.302;10.128;2023-06-22T12:58:29;2.03;;;1.85;;
15706;SDS011;7953;54.302;10.128;2023-06-22T13:00:55;2.63;;;1.92;;
15706;SDS011;7953;54.302;10.128;2023-06-22T13:03:22;3.97;;;1.92;;
15706;SDS011;7953;54.302;10.128;2023-06-22T13:05:53;3.33;;;1.90;;
15706;SDS011;7953;54.302;10.128;2023-06-22T13:08:20;2.10;;;1.67;;
15706;SDS011;7953;54.302;10.128;2023-06-22T13:10:47;2.70;;;1.70;;
15706;SDS011;7953;54.302;10.128;2023-06-22T13:13:14;2.20;;;1.90;;
15706;SDS011;7953;54.302;10.128;2023-06-22T13:15:40;2.15;;;1.95;;
15706;SDS011;7953;54.302;10.128;2023-06-22T13:18:07;2.25;;;2.05;;
15706;SDS011;7953;54.302;10.128;2023-06-22T13:20:34;3.40;;;1.88;;
15706;SDS011;7953;54.302;10.128;2023-06-22T13:23:02;2.97;;;2.00;;
15706;SDS011;7953;54.302;10.128;2023-06-22T13:25:29;2.40;;;2.00;;
15706;SDS011;7953;54.302;10.128;2023-06-22T13:27:56;2.90;;;2.03;;
15706;SDS011;7953;54.302;10.128;2023-06-22T13:30:23;3.20;;;2.08;;
15706;SDS011;7953;54.302;10.128;2023-06-22T13:32:50;1.83;;;1.73;;
15706;SDS011;7953;54.302;10.128;2023-06-22T13:35:17;3.42;;;1.85;;
15706;SDS011;7953;54.302;10.128;2023-06-22T13:37:44;2.50;;;1.70;;
15706;SDS011;7953;54.302;10.128;2023-06-22T13:40:12;1.83;;;1.73;;
15706;SDS011;7953;54.302;10.128;2023-06-22T13:42:39;6.93;;;1.83;;
15706;SDS011;7953;54.302;10.128;2023-06-22T13:45:07;2.42;;;1.70;;
15706;SDS011;7953;54.302;10.128;2023-06-22T13:47:34;7.30;;;2.40;;
15706;SDS011;7953;54.302;10.128;2023-06-22T13:50:01;2.33;;;1.90;;
15706;SDS011;7953;54.302;10.128;2023-06-22T13:52:28;2.10;;;1.73;;
15706;SDS011;7953;54.302;10.128;2023-06-22T13:54:55;2.28;;;2.03;;
15706;SDS011;7953;54.302;10.128;2023-06-22T13:57:24;2.65;;;1.75;;
15706;SDS011;7953;54.302;10.128;2023-06-22T13:59:51;2.20;;;1.88;;
15706;SDS011;7953;54.302;10.128;2023-06-22T14:02:18;2.25;;;1.88;;
15706;SDS011;7953;54.302;10.128;2023-06-22T14:04:45;2.70;;;1.85;;
15706;SDS011;7953;54.302;10.128;2023-06-22T14:07:12;2.38;;;1.90;;
15706;SDS011;7953;54.302;10.128;2023-06-22T14:09:39;1.45;;;1.20;;
15706;SDS011;7953;54.302;10.128;2023-06-22T14:12:06;1.70;;;1.60;;
15706;SDS011;7953;54.302;10.128;2023-06-22T14:14:35;2.25;;;1.58;;
15706;SDS011;7953;54.302;10.128;2023-06-22T14:17:02;2.50;;;1.60;;
15706;SDS011;7953;54.302;10.128;2023-06-22T14:19:29;8.35;;;2.00;;
15706;SDS011;7953;54.302;10.128;2023-06-22T14:21:57;1.90;;;1.70;;
15706;SDS011;7953;54.302;10.128;2023-06-22T14:24:24;2.67;;;1.52;;
15706;SDS011;7953;54.302;10.128;2023-06-22T14:26:51;2.05;;;1.85;;
15706;SDS011;7953;54.302;10.128;2023-06-22T14:29:18;1.73;;;1.63;;
15706;SDS011;7953;54.302;10.128;2023-06-22T14:31:46;2.30;;;1.60;;
15706;SDS011;7953;54.302;10.128;2023-06-22T14:34:13;1.60;;;1.50;;
15706;SDS011;7953;54.302;10.128;2023-06-22T14:36:41;1.70;;;1.60;;
15706;SDS011;7953;54.302;10.128;2023-06-22T14:39:09;2.58;;;1.70;;
15706;SDS011;7953;54.302;10.128;2023-06-22T14:41:35;2.72;;;1.50;;
15706;SDS011;7953;54.302;10.128;2023-06-22T14:44:02;2.38;;;1.90;;
15706;SDS011;7953;54.302;10.128;2023-06-22T14:46:30;2.10;;;1.90;;
15706;SDS011;7953;54.302;10.128;2023-06-22T14:48:58;1.88;;;1.70;;
15706;SDS011;7953;54.302;10.128;2023-06-22T14:51:25;1.77;;;1.60;;
15706;SDS011;7953;54.302;10.128;2023-06-22T14:53:52;2.05;;;1.85;;